sensor_id;sensor_type;location;lat;lon;timestamp;P1;durP1;ratioP1;P2;durP2;ratioP2
8596;SDS011;4336;49.310;8.646;2023-03-01T00:00:22;23.60;;;18.03;;
8596;SDS011;4336;49.310;8.646;2023-03-01T00:02:48;19.10;;;16.77;;
8596;SDS011;4336;49.310;8.646;2023-03-01T00:05:14;21.90;;;18.53;;
8596;SDS011;4336;49.310;8.646;2023-03-01T00:07:40;22.03;;;18.97;;
8596;SDS011;4336;49.310;8.646;2023-03-01T00:10:06;21.70;;;18.70;;
8596;SDS011;4336;49.310;8.646;2023-03-01T00:12:33;26.00;;;19.07;;
8596;SDS011;4336;49.310;8.646;2023-03-01T00:14:59;20.23;;;18.00;;
8596;SDS011;4336;49.310;8.646;2023-03-01T00:17:25;19.47;;;16.70;;
8596;SDS011;4336;49.310;8.646;2023-03-01T00:19:53;22.53;;;18.70;;
8596;SDS011;4336;49.310;8.646;2023-03-01T00:22:20;21.37;;;17.67;;
8596;SDS011;4336;49.310;8.646;2023-03-01T00:24:46;23.73;;;17.73;;
8596;SDS011;4336;49.310;8.646;2023-03-01T00:27:12;20.07;;;17.93;;
8596;SDS011;4336;49.310;8.646;2023-03-01T00:29:38;22.23;;;16.90;;
8596;SDS011;4336;49.310;8.646;2023-03-01T00:32:04;21.33;;;18.43;;
8596;SDS011;4336;49.310;8.646;2023-03-01T00:34:30;21.00;;;18.33;;
8596;SDS011;4336;49.310;8.646;2023-03-01T00:36:56;20.33;;;17.43;;
8596;SDS011;4336;49.310;8.646;2023-03-01T00:39:30;19.93;;;17.80;;
8596;SDS011;4336;49.310;8.646;2023-03-01T00:41:57;22.97;;;18.80;;
8596;SDS011;4336;49.310;8.646;2023-03-01T00:44:23;21.80;;;18.87;;
8596;SDS011;4336;49.310;8.646;2023-03-01T00:46:49;21.30;;;18.40;;
8596;SDS011;4336;49.310;8.646;2023-03-01T00:49:15;18.57;;;16.57;;
8596;SDS011;4336;49.310;8.646;2023-03-01T00:51:41;22.27;;;18.93;;
8596;SDS011;4336;49.310;8.646;2023-03-01T00:54:08;21.47;;;18.80;;
8596;SDS011;4336;49.310;8.646;2023-03-01T00:56:34;22.90;;;18.23;;
8596;SDS011;4336;49.310;8.646;2023-03-01T00:59:00;22.17;;;19.80;;
8596;SDS011;4336;49.310;8.646;2023-03-01T01:01:28;21.17;;;18.87;;
8596;SDS011;4336;49.310;8.646;2023-03-01T01:03:56;22.73;;;18.93;;
8596;SDS011;4336;49.310;8.646;2023-03-01T01:06:24;23.03;;;19.63;;
8596;SDS011;4336;49.310;8.646;2023-03-01T01:08:51;26.40;;;19.70;;
8596;SDS011;4336;49.310;8.646;2023-03-01T01:11:17;21.07;;;18.77;;
8596;SDS011;4336;49.310;8.646;2023-03-01T01:13:44;22.77;;;19.43;;
8596;SDS011;4336;49.310;8.646;2023-03-01T01:16:11;23.20;;;18.77;;
8596;SDS011;4336;49.310;8.646;2023-03-01T01:18:37;23.40;;;20.03;;
8596;SDS011;4336;49.310;8.646;2023-03-01T01:21:08;21.97;;;19.57;;
8596;SDS011;4336;49.310;8.646;2023-03-01T01:23:34;22.17;;;19.33;;
8596;SDS011;4336;49.310;8.646;2023-03-01T01:26:05;23.83;;;19.20;;
8596;SDS011;4336;49.310;8.646;2023-03-01T01:28:31;21.50;;;18.73;;
8596;SDS011;4336;49.310;8.646;2023-03-01T01:30:57;25.67;;;20.57;;
8596;SDS011;4336;49.310;8.646;2023-03-01T01:33:23;22.83;;;20.43;;
8596;SDS011;4336;49.310;8.646;2023-03-01T01:35:50;22.93;;;20.27;;
8596;SDS011;4336;49.310;8.646;2023-03-01T01:38:16;24.20;;;20.37;;
8596;SDS011;4336;49.310;8.646;2023-03-01T01:40:43;22.73;;;19.50;;
8596;SDS011;4336;49.310;8.646;2023-03-01T01:43:16;23.17;;;20.13;;
8596;SDS011;4336;49.310;8.646;2023-03-01T01:45:43;22.23;;;19.57;;
8596;SDS011;4336;49.310;8.646;2023-03-01T01:48:10;22.60;;;19.83;;
8596;SDS011;4336;49.310;8.646;2023-03-01T01:50:39;23.67;;;21.03;;
8596;SDS011;4336;49.310;8.646;2023-03-01T01:53:08;24.30;;;19.40;;
8596;SDS011;4336;49.310;8.646;2023-03-01T01:55:35;24.07;;;20.87;;
8596;SDS011;4336;49.310;8.646;2023-03-01T01:58:02;22.80;;;20.40;;
8596;SDS011;4336;49.310;8.646;2023-03-01T02:00:31;26.57;;;21.43;;
8596;SDS011;4336;49.310;8.646;2023-03-01T02:02:59;24.37;;;21.67;;
8596;SDS011;4336;49.310;8.646;2023-03-01T02:05:29;22.30;;;19.27;;
8596;SDS011;4336;49.310;8.646;2023-03-01T02:07:59;24.40;;;20.20;;
8596;SDS011;4336;49.310;8.646;2023-03-01T02:10:25;24.60;;;21.23;;
8596;SDS011;4336;49.310;8.646;2023-03-01T02:12:53;25.03;;;20.93;;
8596;SDS011;4336;49.310;8.646;2023-03-01T02:15:21;26.97;;;21.67;;
8596;SDS011;4336;49.310;8.646;2023-03-01T02:17:48;28.23;;;19.93;;
8596;SDS011;4336;49.310;8.646;2023-03-01T02:22:46;26.37;;;21.93;;
8596;SDS011;4336;49.310;8.646;2023-03-01T02:27:53;25.20;;;19.83;;
8596;SDS011;4336;49.310;8.646;2023-03-01T02:30:22;23.70;;;20.70;;
8596;SDS011;4336;49.310;8.646;2023-03-01T02:32:48;25.33;;;19.83;;
8596;SDS011;4336;49.310;8.646;2023-03-01T02:35:16;25.27;;;22.00;;
8596;SDS011;4336;49.310;8.646;2023-03-01T02:37:43;26.90;;;20.20;;
8596;SDS011;4336;49.310;8.646;2023-03-01T02:40:18;24.93;;;21.07;;
8596;SDS011;4336;49.310;8.646;2023-03-01T02:42:51;26.03;;;22.33;;
8596;SDS011;4336;49.310;8.646;2023-03-01T02:45:18;27.40;;;21.83;;
8596;SDS011;4336;49.310;8.646;2023-03-01T02:47:44;26.23;;;22.87;;
8596;SDS011;4336;49.310;8.646;2023-03-01T02:52:47;24.60;;;21.70;;
8596;SDS011;4336;49.310;8.646;2023-03-01T02:55:18;25.83;;;21.73;;
8596;SDS011;4336;49.310;8.646;2023-03-01T02:57:45;26.60;;;22.27;;
8596;SDS011;4336;49.310;8.646;2023-03-01T03:00:12;27.17;;;21.87;;
8596;SDS011;4336;49.310;8.646;2023-03-01T03:02:45;27.87;;;23.40;;
8596;SDS011;4336;49.310;8.646;2023-03-01T03:05:20;25.67;;;21.30;;
8596;SDS011;4336;49.310;8.646;2023-03-01T03:07:49;28.57;;;23.17;;
8596;SDS011;4336;49.310;8.646;2023-03-01T03:10:23;26.97;;;22.07;;
8596;SDS011;4336;49.310;8.646;2023-03-01T03:12:51;28.37;;;23.37;;
8596;SDS011;4336;49.310;8.646;2023-03-01T03:15:18;27.10;;;22.70;;
8596;SDS011;4336;49.310;8.646;2023-03-01T03:17:46;25.17;;;22.47;;
8596;SDS011;4336;49.310;8.646;2023-03-01T03:20:13;26.77;;;23.20;;
8596;SDS011;4336;49.310;8.646;2023-03-01T03:22:47;28.60;;;23.17;;
8596;SDS011;4336;49.310;8.646;2023-03-01T03:25:14;27.07;;;22.77;;
8596;SDS011;4336;49.310;8.646;2023-03-01T03:27:41;25.67;;;21.90;;
8596;SDS011;4336;49.310;8.646;2023-03-01T03:30:09;28.73;;;23.43;;
8596;SDS011;4336;49.310;8.646;2023-03-01T03:32:40;27.83;;;22.53;;
8596;SDS011;4336;49.310;8.646;2023-03-01T03:35:08;27.47;;;23.33;;
8596;SDS011;4336;49.310;8.646;2023-03-01T03:37:38;28.33;;;23.00;;
8596;SDS011;4336;49.310;8.646;2023-03-01T03:40:23;26.23;;;21.27;;
8596;SDS011;4336;49.310;8.646;2023-03-01T03:42:49;29.57;;;23.33;;
8596;SDS011;4336;49.310;8.646;2023-03-01T03:45:16;28.23;;;23.17;;
8596;SDS011;4336;49.310;8.646;2023-03-01T03:47:42;26.20;;;22.10;;
8596;SDS011;4336;49.310;8.646;2023-03-01T03:50:09;27.87;;;23.60;;
8596;SDS011;4336;49.310;8.646;2023-03-01T03:52:35;28.63;;;24.07;;
8596;SDS011;4336;49.310;8.646;2023-03-01T03:55:02;32.53;;;25.33;;
8596;SDS011;4336;49.310;8.646;2023-03-01T03:57:28;26.90;;;23.10;;
8596;SDS011;4336;49.310;8.646;2023-03-01T03:59:54;33.43;;;23.67;;
8596;SDS011;4336;49.310;8.646;2023-03-01T04:02:20;27.70;;;23.50;;
8596;SDS011;4336;49.310;8.646;2023-03-01T04:04:50;32.50;;;23.43;;
8596;SDS011;4336;49.310;8.646;2023-03-01T04:07:16;29.57;;;23.70;;
8596;SDS011;4336;49.310;8.646;2023-03-01T04:09:43;27.13;;;23.47;;
8596;SDS011;4336;49.310;8.646;2023-03-01T04:12:09;28.20;;;23.70;;
8596;SDS011;4336;49.310;8.646;2023-03-01T04:14:36;26.83;;;22.73;;
8596;SDS011;4336;49.310;8.646;2023-03-01T04:17:02;26.47;;;22.50;;
8596;SDS011;4336;49.310;8.646;2023-03-01T04:19:33;26.30;;;22.17;;
8596;SDS011;4336;49.310;8.646;2023-03-01T04:22:04;30.83;;;24.17;;
8596;SDS011;4336;49.310;8.646;2023-03-01T04:24:34;27.63;;;21.63;;
8596;SDS011;4336;49.310;8.646;2023-03-01T04:27:01;27.20;;;23.77;;
8596;SDS011;4336;49.310;8.646;2023-03-01T04:29:27;26.23;;;23.13;;
8596;SDS011;4336;49.310;8.646;2023-03-01T04:31:53;30.50;;;23.93;;
8596;SDS011;4336;49.310;8.646;2023-03-01T04:34:19;33.20;;;24.70;;
8596;SDS011;4336;49.310;8.646;2023-03-01T04:36:46;29.63;;;23.47;;
8596;SDS011;4336;49.310;8.646;2023-03-01T04:39:12;31.87;;;24.50;;
8596;SDS011;4336;49.310;8.646;2023-03-01T04:41:38;29.77;;;23.67;;
8596;SDS011;4336;49.310;8.646;2023-03-01T04:44:05;28.30;;;23.87;;
8596;SDS011;4336;49.310;8.646;2023-03-01T04:46:31;28.13;;;23.80;;
8596;SDS011;4336;49.310;8.646;2023-03-01T04:48:57;33.43;;;24.60;;
8596;SDS011;4336;49.310;8.646;2023-03-01T04:51:23;30.23;;;25.13;;
8596;SDS011;4336;49.310;8.646;2023-03-01T04:53:50;29.83;;;24.73;;
8596;SDS011;4336;49.310;8.646;2023-03-01T04:56:16;27.83;;;24.17;;
8596;SDS011;4336;49.310;8.646;2023-03-01T04:58:45;29.70;;;21.87;;
8596;SDS011;4336;49.310;8.646;2023-03-01T05:01:13;28.87;;;24.90;;
8596;SDS011;4336;49.310;8.646;2023-03-01T05:03:43;30.37;;;23.47;;
8596;SDS011;4336;49.310;8.646;2023-03-01T05:06:09;30.67;;;24.03;;
8596;SDS011;4336;49.310;8.646;2023-03-01T05:08:36;31.87;;;25.40;;
8596;SDS011;4336;49.310;8.646;2023-03-01T05:11:02;31.00;;;25.30;;
8596;SDS011;4336;49.310;8.646;2023-03-01T05:13:28;32.37;;;25.97;;
8596;SDS011;4336;49.310;8.646;2023-03-01T05:15:55;30.93;;;24.97;;
8596;SDS011;4336;49.310;8.646;2023-03-01T05:18:23;33.27;;;26.10;;
8596;SDS011;4336;49.310;8.646;2023-03-01T05:21:01;32.67;;;26.67;;
8596;SDS011;4336;49.310;8.646;2023-03-01T05:23:29;35.23;;;25.10;;
8596;SDS011;4336;49.310;8.646;2023-03-01T05:25:59;30.73;;;25.67;;
8596;SDS011;4336;49.310;8.646;2023-03-01T05:28:26;34.27;;;24.70;;
8596;SDS011;4336;49.310;8.646;2023-03-01T05:30:53;30.17;;;24.00;;
8596;SDS011;4336;49.310;8.646;2023-03-01T05:33:19;31.93;;;25.80;;
8596;SDS011;4336;49.310;8.646;2023-03-01T05:35:47;29.50;;;25.03;;
8596;SDS011;4336;49.310;8.646;2023-03-01T05:38:13;32.37;;;26.83;;
8596;SDS011;4336;49.310;8.646;2023-03-01T05:40:43;30.70;;;25.33;;
8596;SDS011;4336;49.310;8.646;2023-03-01T05:43:10;29.83;;;25.60;;
8596;SDS011;4336;49.310;8.646;2023-03-01T05:45:37;36.30;;;27.53;;
8596;SDS011;4336;49.310;8.646;2023-03-01T05:48:03;38.23;;;27.27;;
8596;SDS011;4336;49.310;8.646;2023-03-01T05:50:32;40.70;;;28.77;;
8596;SDS011;4336;49.310;8.646;2023-03-01T05:53:03;39.03;;;28.17;;
8596;SDS011;4336;49.310;8.646;2023-03-01T05:55:33;37.20;;;28.53;;
8596;SDS011;4336;49.310;8.646;2023-03-01T05:58:07;37.50;;;28.27;;
8596;SDS011;4336;49.310;8.646;2023-03-01T06:00:35;32.03;;;26.90;;
8596;SDS011;4336;49.310;8.646;2023-03-01T06:03:01;32.43;;;26.07;;
8596;SDS011;4336;49.310;8.646;2023-03-01T06:05:28;32.27;;;24.83;;
8596;SDS011;4336;49.310;8.646;2023-03-01T06:07:54;32.10;;;26.03;;
8596;SDS011;4336;49.310;8.646;2023-03-01T06:10:21;31.83;;;26.13;;
8596;SDS011;4336;49.310;8.646;2023-03-01T06:12:47;32.97;;;26.57;;
8596;SDS011;4336;49.310;8.646;2023-03-01T06:15:14;33.13;;;26.60;;
8596;SDS011;4336;49.310;8.646;2023-03-01T06:17:41;31.17;;;26.43;;
8596;SDS011;4336;49.310;8.646;2023-03-01T06:20:18;31.07;;;26.67;;
8596;SDS011;4336;49.310;8.646;2023-03-01T06:22:45;31.40;;;26.87;;
8596;SDS011;4336;49.310;8.646;2023-03-01T06:25:12;35.43;;;26.60;;
8596;SDS011;4336;49.310;8.646;2023-03-01T06:27:38;32.40;;;25.93;;
8596;SDS011;4336;49.310;8.646;2023-03-01T06:30:05;31.80;;;26.87;;
8596;SDS011;4336;49.310;8.646;2023-03-01T06:32:32;31.47;;;26.90;;
8596;SDS011;4336;49.310;8.646;2023-03-01T06:34:58;34.47;;;26.00;;
8596;SDS011;4336;49.310;8.646;2023-03-01T06:37:25;33.63;;;27.27;;
8596;SDS011;4336;49.310;8.646;2023-03-01T06:39:51;31.93;;;25.50;;
8596;SDS011;4336;49.310;8.646;2023-03-01T06:42:17;33.63;;;27.03;;
8596;SDS011;4336;49.310;8.646;2023-03-01T06:44:44;34.43;;;27.37;;
8596;SDS011;4336;49.310;8.646;2023-03-01T06:47:11;33.10;;;26.43;;
8596;SDS011;4336;49.310;8.646;2023-03-01T06:49:37;36.53;;;27.57;;
8596;SDS011;4336;49.310;8.646;2023-03-01T06:52:03;32.70;;;24.13;;
8596;SDS011;4336;49.310;8.646;2023-03-01T06:54:29;38.07;;;26.57;;
8596;SDS011;4336;49.310;8.646;2023-03-01T06:56:55;31.77;;;25.97;;
8596;SDS011;4336;49.310;8.646;2023-03-01T06:59:21;33.57;;;27.60;;
8596;SDS011;4336;49.310;8.646;2023-03-01T07:01:47;31.20;;;26.33;;
8596;SDS011;4336;49.310;8.646;2023-03-01T07:04:14;29.73;;;24.97;;
8596;SDS011;4336;49.310;8.646;2023-03-01T07:06:40;31.63;;;25.67;;
8596;SDS011;4336;49.310;8.646;2023-03-01T07:09:06;36.73;;;26.27;;
8596;SDS011;4336;49.310;8.646;2023-03-01T07:11:32;30.93;;;25.57;;
8596;SDS011;4336;49.310;8.646;2023-03-01T07:13:58;31.13;;;26.60;;
8596;SDS011;4336;49.310;8.646;2023-03-01T07:16:25;30.77;;;25.50;;
8596;SDS011;4336;49.310;8.646;2023-03-01T07:18:51;28.40;;;24.57;;
8596;SDS011;4336;49.310;8.646;2023-03-01T07:21:17;31.27;;;25.37;;
8596;SDS011;4336;49.310;8.646;2023-03-01T07:23:43;31.73;;;24.63;;
8596;SDS011;4336;49.310;8.646;2023-03-01T07:26:09;28.70;;;23.70;;
8596;SDS011;4336;49.310;8.646;2023-03-01T07:28:35;31.70;;;24.20;;
8596;SDS011;4336;49.310;8.646;2023-03-01T07:31:04;29.30;;;24.97;;
8596;SDS011;4336;49.310;8.646;2023-03-01T07:33:30;30.47;;;24.80;;
8596;SDS011;4336;49.310;8.646;2023-03-01T07:35:57;28.80;;;24.67;;
8596;SDS011;4336;49.310;8.646;2023-03-01T07:38:24;36.77;;;24.00;;
8596;SDS011;4336;49.310;8.646;2023-03-01T07:40:50;30.43;;;23.43;;
8596;SDS011;4336;49.310;8.646;2023-03-01T07:43:16;27.03;;;23.23;;
8596;SDS011;4336;49.310;8.646;2023-03-01T07:45:42;27.93;;;21.43;;
8596;SDS011;4336;49.310;8.646;2023-03-01T07:48:08;24.83;;;22.23;;
8596;SDS011;4336;49.310;8.646;2023-03-01T07:50:34;25.90;;;22.97;;
8596;SDS011;4336;49.310;8.646;2023-03-01T07:53:01;26.17;;;23.37;;
8596;SDS011;4336;49.310;8.646;2023-03-01T07:55:27;26.20;;;23.40;;
8596;SDS011;4336;49.310;8.646;2023-03-01T07:57:53;26.87;;;23.27;;
8596;SDS011;4336;49.310;8.646;2023-03-01T08:00:20;27.73;;;22.93;;
8596;SDS011;4336;49.310;8.646;2023-03-01T08:02:46;26.83;;;22.57;;
8596;SDS011;4336;49.310;8.646;2023-03-01T08:05:12;28.87;;;22.93;;
8596;SDS011;4336;49.310;8.646;2023-03-01T08:07:38;24.60;;;22.00;;
8596;SDS011;4336;49.310;8.646;2023-03-01T08:10:04;25.80;;;22.53;;
8596;SDS011;4336;49.310;8.646;2023-03-01T08:12:31;26.37;;;23.50;;
8596;SDS011;4336;49.310;8.646;2023-03-01T08:14:57;30.40;;;24.87;;
8596;SDS011;4336;49.310;8.646;2023-03-01T08:17:23;27.87;;;21.30;;
8596;SDS011;4336;49.310;8.646;2023-03-01T08:19:49;26.63;;;23.70;;
8596;SDS011;4336;49.310;8.646;2023-03-01T08:22:16;26.23;;;23.53;;
8596;SDS011;4336;49.310;8.646;2023-03-01T08:24:42;27.37;;;23.87;;
8596;SDS011;4336;49.310;8.646;2023-03-01T08:27:08;26.50;;;23.10;;
8596;SDS011;4336;49.310;8.646;2023-03-01T08:29:35;24.30;;;21.80;;
8596;SDS011;4336;49.310;8.646;2023-03-01T08:32:01;25.37;;;22.30;;
8596;SDS011;4336;49.310;8.646;2023-03-01T08:34:27;26.07;;;23.40;;
8596;SDS011;4336;49.310;8.646;2023-03-01T08:36:53;27.57;;;24.30;;
8596;SDS011;4336;49.310;8.646;2023-03-01T08:39:20;26.20;;;23.07;;
8596;SDS011;4336;49.310;8.646;2023-03-01T08:41:46;29.00;;;24.30;;
8596;SDS011;4336;49.310;8.646;2023-03-01T08:44:13;26.33;;;23.67;;
8596;SDS011;4336;49.310;8.646;2023-03-01T08:46:42;24.37;;;21.77;;
8596;SDS011;4336;49.310;8.646;2023-03-01T08:49:10;25.90;;;23.17;;
8596;SDS011;4336;49.310;8.646;2023-03-01T08:51:36;25.80;;;23.00;;
8596;SDS011;4336;49.310;8.646;2023-03-01T08:54:03;29.57;;;25.20;;
8596;SDS011;4336;49.310;8.646;2023-03-01T08:56:30;30.07;;;25.17;;
8596;SDS011;4336;49.310;8.646;2023-03-01T08:58:56;26.63;;;23.77;;
8596;SDS011;4336;49.310;8.646;2023-03-01T09:01:22;26.00;;;23.03;;
8596;SDS011;4336;49.310;8.646;2023-03-01T09:03:48;26.50;;;23.33;;
8596;SDS011;4336;49.310;8.646;2023-03-01T09:06:14;26.70;;;23.90;;
8596;SDS011;4336;49.310;8.646;2023-03-01T09:08:41;26.23;;;22.73;;
8596;SDS011;4336;49.310;8.646;2023-03-01T09:11:10;29.70;;;23.90;;
8596;SDS011;4336;49.310;8.646;2023-03-01T09:13:37;27.20;;;23.63;;
8596;SDS011;4336;49.310;8.646;2023-03-01T09:16:04;25.97;;;23.03;;
8596;SDS011;4336;49.310;8.646;2023-03-01T09:18:31;27.50;;;23.63;;
8596;SDS011;4336;49.310;8.646;2023-03-01T09:21:12;27.60;;;24.80;;
8596;SDS011;4336;49.310;8.646;2023-03-01T09:23:40;26.33;;;23.53;;
8596;SDS011;4336;49.310;8.646;2023-03-01T09:26:07;27.20;;;24.30;;
8596;SDS011;4336;49.310;8.646;2023-03-01T09:28:35;27.67;;;24.80;;
8596;SDS011;4336;49.310;8.646;2023-03-01T09:31:02;28.20;;;23.47;;
8596;SDS011;4336;49.310;8.646;2023-03-01T09:33:28;27.90;;;23.43;;
8596;SDS011;4336;49.310;8.646;2023-03-01T09:36:06;28.47;;;23.43;;
8596;SDS011;4336;49.310;8.646;2023-03-01T09:38:33;27.93;;;24.97;;
8596;SDS011;4336;49.310;8.646;2023-03-01T09:41:00;27.67;;;24.17;;
8596;SDS011;4336;49.310;8.646;2023-03-01T09:43:29;27.43;;;23.67;;
8596;SDS011;4336;49.310;8.646;2023-03-01T09:46:03;29.07;;;23.77;;
8596;SDS011;4336;49.310;8.646;2023-03-01T09:48:32;27.83;;;24.90;;
8596;SDS011;4336;49.310;8.646;2023-03-01T09:51:03;27.07;;;24.33;;
8596;SDS011;4336;49.310;8.646;2023-03-01T09:53:33;27.87;;;24.20;;
8596;SDS011;4336;49.310;8.646;2023-03-01T10:06:26;25.67;;;23.07;;
8596;SDS011;4336;49.310;8.646;2023-03-01T10:11:51;26.20;;;23.60;;
8596;SDS011;4336;49.310;8.646;2023-03-01T10:17:27;25.73;;;23.03;;
8596;SDS011;4336;49.310;8.646;2023-03-01T10:20:21;25.87;;;23.13;;
8596;SDS011;4336;49.310;8.646;2023-03-01T10:22:52;26.43;;;23.80;;
8596;SDS011;4336;49.310;8.646;2023-03-01T10:27:54;25.03;;;22.53;;
8596;SDS011;4336;49.310;8.646;2023-03-01T10:30:42;27.37;;;24.67;;
8596;SDS011;4336;49.310;8.646;2023-03-01T10:33:14;26.37;;;23.83;;
8596;SDS011;4336;49.310;8.646;2023-03-01T10:35:48;25.37;;;22.87;;
8596;SDS011;4336;49.310;8.646;2023-03-01T10:38:15;27.17;;;24.27;;
8596;SDS011;4336;49.310;8.646;2023-03-01T10:40:55;25.03;;;22.53;;
8596;SDS011;4336;49.310;8.646;2023-03-01T10:43:23;26.20;;;23.47;;
8596;SDS011;4336;49.310;8.646;2023-03-01T10:45:55;24.07;;;21.57;;
8596;SDS011;4336;49.310;8.646;2023-03-01T10:48:24;24.10;;;21.70;;
8596;SDS011;4336;49.310;8.646;2023-03-01T10:51:16;25.37;;;22.93;;
8596;SDS011;4336;49.310;8.646;2023-03-01T10:53:43;24.27;;;21.77;;
8596;SDS011;4336;49.310;8.646;2023-03-01T10:56:14;23.73;;;21.33;;
8596;SDS011;4336;49.310;8.646;2023-03-01T10:59:02;25.87;;;23.23;;
8596;SDS011;4336;49.310;8.646;2023-03-01T11:01:34;23.10;;;20.70;;
8596;SDS011;4336;49.310;8.646;2023-03-01T11:06:35;23.77;;;21.40;;
8596;SDS011;4336;49.310;8.646;2023-03-01T11:09:21;23.50;;;21.10;;
8596;SDS011;4336;49.310;8.646;2023-03-01T11:11:52;23.50;;;21.00;;
8596;SDS011;4336;49.310;8.646;2023-03-01T11:14:26;25.20;;;22.70;;
8596;SDS011;4336;49.310;8.646;2023-03-01T11:17:02;22.83;;;20.63;;
8596;SDS011;4336;49.310;8.646;2023-03-01T11:19:29;22.30;;;20.13;;
8596;SDS011;4336;49.310;8.646;2023-03-01T11:21:57;23.43;;;20.97;;
8596;SDS011;4336;49.310;8.646;2023-03-01T11:24:34;23.33;;;20.53;;
8596;SDS011;4336;49.310;8.646;2023-03-01T11:27:08;22.97;;;20.87;;
8596;SDS011;4336;49.310;8.646;2023-03-01T11:35:34;27.83;;;24.93;;
8596;SDS011;4336;49.310;8.646;2023-03-01T11:38:05;26.73;;;24.03;;
8596;SDS011;4336;49.310;8.646;2023-03-01T11:43:33;28.27;;;25.17;;
8596;SDS011;4336;49.310;8.646;2023-03-01T11:51:36;26.50;;;23.80;;
8596;SDS011;4336;49.310;8.646;2023-03-01T11:56:43;26.40;;;23.60;;
8596;SDS011;4336;49.310;8.646;2023-03-01T12:09:50;24.03;;;21.73;;
8596;SDS011;4336;49.310;8.646;2023-03-01T12:18:25;26.27;;;23.67;;
8596;SDS011;4336;49.310;8.646;2023-03-01T12:24:08;92.30;;;25.83;;
8596;SDS011;4336;49.310;8.646;2023-03-01T12:26:54;29.33;;;22.50;;
8596;SDS011;4336;49.310;8.646;2023-03-01T12:29:59;24.87;;;22.07;;
8596;SDS011;4336;49.310;8.646;2023-03-01T12:38:18;27.03;;;23.10;;
8596;SDS011;4336;49.310;8.646;2023-03-01T12:51:50;20.77;;;18.70;;
8596;SDS011;4336;49.310;8.646;2023-03-01T12:54:27;22.00;;;19.80;;
8596;SDS011;4336;49.310;8.646;2023-03-01T12:56:57;21.53;;;18.93;;
8596;SDS011;4336;49.310;8.646;2023-03-01T12:59:35;20.60;;;18.50;;
8596;SDS011;4336;49.310;8.646;2023-03-01T13:02:24;20.87;;;18.67;;
8596;SDS011;4336;49.310;8.646;2023-03-01T13:08:05;21.27;;;19.23;;
8596;SDS011;4336;49.310;8.646;2023-03-01T13:10:47;20.23;;;18.17;;
8596;SDS011;4336;49.310;8.646;2023-03-01T13:13:22;20.00;;;18.03;;
8596;SDS011;4336;49.310;8.646;2023-03-01T13:15:49;20.00;;;17.90;;
8596;SDS011;4336;49.310;8.646;2023-03-01T13:23:24;21.10;;;19.10;;
8596;SDS011;4336;49.310;8.646;2023-03-01T13:31:06;23.90;;;21.50;;
8596;SDS011;4336;49.310;8.646;2023-03-01T13:33:52;21.73;;;19.53;;
8596;SDS011;4336;49.310;8.646;2023-03-01T13:46:58;20.17;;;18.27;;
8596;SDS011;4336;49.310;8.646;2023-03-01T13:49:28;23.00;;;20.67;;
8596;SDS011;4336;49.310;8.646;2023-03-01T13:51:58;22.97;;;20.67;;
8596;SDS011;4336;49.310;8.646;2023-03-01T13:54:33;22.03;;;19.80;;
8596;SDS011;4336;49.310;8.646;2023-03-01T13:57:00;20.63;;;18.50;;
8596;SDS011;4336;49.310;8.646;2023-03-01T13:59:27;21.10;;;18.77;;
8596;SDS011;4336;49.310;8.646;2023-03-01T14:01:56;22.07;;;19.67;;
8596;SDS011;4336;49.310;8.646;2023-03-01T14:04:27;23.07;;;20.63;;
8596;SDS011;4336;49.310;8.646;2023-03-01T14:07:12;23.53;;;20.20;;
8596;SDS011;4336;49.310;8.646;2023-03-01T14:09:44;20.73;;;18.20;;
8596;SDS011;4336;49.310;8.646;2023-03-01T14:15:06;23.73;;;20.53;;
8596;SDS011;4336;49.310;8.646;2023-03-01T14:17:39;22.20;;;19.80;;
8596;SDS011;4336;49.310;8.646;2023-03-01T14:20:27;20.50;;;18.43;;
8596;SDS011;4336;49.310;8.646;2023-03-01T14:22:54;20.97;;;18.87;;
8596;SDS011;4336;49.310;8.646;2023-03-01T14:25:26;19.10;;;17.00;;
8596;SDS011;4336;49.310;8.646;2023-03-01T14:28:03;24.23;;;21.10;;
8596;SDS011;4336;49.310;8.646;2023-03-01T14:30:31;21.00;;;18.80;;
8596;SDS011;4336;49.310;8.646;2023-03-01T14:33:00;22.07;;;19.77;;
8596;SDS011;4336;49.310;8.646;2023-03-01T14:35:28;22.33;;;20.03;;
8596;SDS011;4336;49.310;8.646;2023-03-01T14:37:54;21.77;;;19.57;;
8596;SDS011;4336;49.310;8.646;2023-03-01T14:40:31;22.10;;;19.90;;
8596;SDS011;4336;49.310;8.646;2023-03-01T14:42:59;22.00;;;19.77;;
8596;SDS011;4336;49.310;8.646;2023-03-01T14:45:27;20.40;;;18.40;;
8596;SDS011;4336;49.310;8.646;2023-03-01T14:47:54;23.00;;;20.60;;
8596;SDS011;4336;49.310;8.646;2023-03-01T14:50:25;22.23;;;19.77;;
8596;SDS011;4336;49.310;8.646;2023-03-01T14:52:54;21.23;;;19.03;;
8596;SDS011;4336;49.310;8.646;2023-03-01T14:57:53;20.63;;;18.33;;
8596;SDS011;4336;49.310;8.646;2023-03-01T15:00:24;21.83;;;19.63;;
8596;SDS011;4336;49.310;8.646;2023-03-01T15:02:51;22.30;;;19.90;;
8596;SDS011;4336;49.310;8.646;2023-03-01T15:05:24;22.60;;;20.00;;
8596;SDS011;4336;49.310;8.646;2023-03-01T15:07:51;21.93;;;19.70;;
8596;SDS011;4336;49.310;8.646;2023-03-01T15:10:22;24.80;;;20.53;;
8596;SDS011;4336;49.310;8.646;2023-03-01T15:12:49;21.93;;;19.63;;
8596;SDS011;4336;49.310;8.646;2023-03-01T15:15:37;22.33;;;19.30;;
8596;SDS011;4336;49.310;8.646;2023-03-01T15:18:18;21.27;;;19.07;;
8596;SDS011;4336;49.310;8.646;2023-03-01T15:20:46;23.27;;;20.27;;
8596;SDS011;4336;49.310;8.646;2023-03-01T15:23:18;23.27;;;20.87;;
8596;SDS011;4336;49.310;8.646;2023-03-01T15:25:45;22.17;;;19.73;;
8596;SDS011;4336;49.310;8.646;2023-03-01T15:28:12;28.60;;;19.90;;
8596;SDS011;4336;49.310;8.646;2023-03-01T15:30:45;22.07;;;19.23;;
8596;SDS011;4336;49.310;8.646;2023-03-01T15:35:53;22.80;;;20.10;;
8596;SDS011;4336;49.310;8.646;2023-03-01T15:40:55;23.97;;;21.43;;
8596;SDS011;4336;49.310;8.646;2023-03-01T15:46:13;30.10;;;22.63;;
8596;SDS011;4336;49.310;8.646;2023-03-01T15:48:48;25.70;;;22.00;;
8596;SDS011;4336;49.310;8.646;2023-03-01T15:51:17;23.77;;;21.27;;
8596;SDS011;4336;49.310;8.646;2023-03-01T15:53:49;23.77;;;21.37;;
8596;SDS011;4336;49.310;8.646;2023-03-01T15:56:16;23.33;;;20.83;;
8596;SDS011;4336;49.310;8.646;2023-03-01T15:58:42;23.73;;;21.27;;
8596;SDS011;4336;49.310;8.646;2023-03-01T16:01:10;22.37;;;19.83;;
8596;SDS011;4336;49.310;8.646;2023-03-01T16:03:38;22.33;;;19.87;;
8596;SDS011;4336;49.310;8.646;2023-03-01T16:06:04;22.27;;;20.03;;
8596;SDS011;4336;49.310;8.646;2023-03-01T16:08:30;23.77;;;20.57;;
8596;SDS011;4336;49.310;8.646;2023-03-01T16:10:56;24.10;;;21.50;;
8596;SDS011;4336;49.310;8.646;2023-03-01T16:13:23;23.27;;;20.77;;
8596;SDS011;4336;49.310;8.646;2023-03-01T16:15:50;23.43;;;20.93;;
8596;SDS011;4336;49.310;8.646;2023-03-01T16:18:16;24.77;;;21.90;;
8596;SDS011;4336;49.310;8.646;2023-03-01T16:20:42;23.33;;;20.87;;
8596;SDS011;4336;49.310;8.646;2023-03-01T16:23:10;23.40;;;21.00;;
8596;SDS011;4336;49.310;8.646;2023-03-01T16:25:36;24.43;;;21.63;;
8596;SDS011;4336;49.310;8.646;2023-03-01T16:28:03;22.33;;;20.03;;
8596;SDS011;4336;49.310;8.646;2023-03-01T16:30:34;23.83;;;20.73;;
8596;SDS011;4336;49.310;8.646;2023-03-01T16:33:00;22.57;;;20.10;;
8596;SDS011;4336;49.310;8.646;2023-03-01T16:35:27;24.20;;;20.93;;
8596;SDS011;4336;49.310;8.646;2023-03-01T16:37:54;23.60;;;20.43;;
8596;SDS011;4336;49.310;8.646;2023-03-01T16:40:24;21.73;;;19.43;;
8596;SDS011;4336;49.310;8.646;2023-03-01T16:42:52;26.93;;;20.00;;
8596;SDS011;4336;49.310;8.646;2023-03-01T16:45:18;21.10;;;18.90;;
8596;SDS011;4336;49.310;8.646;2023-03-01T16:47:44;22.67;;;20.17;;
8596;SDS011;4336;49.310;8.646;2023-03-01T16:50:11;24.10;;;20.33;;
8596;SDS011;4336;49.310;8.646;2023-03-01T16:52:37;28.00;;;23.60;;
8596;SDS011;4336;49.310;8.646;2023-03-01T16:55:04;30.30;;;24.50;;
8596;SDS011;4336;49.310;8.646;2023-03-01T16:57:30;40.43;;;29.43;;